createdAt,value
2022-10-22T00:00:35.554Z,-0.8
2022-10-22T00:01:35.874Z,-0.75
2022-10-22T00:02:36.255Z,-0.6
2022-10-22T00:03:36.590Z,-0.59
2022-10-22T00:04:37.035Z,-0.63
2022-10-22T00:05:37.425Z,-0.64
2022-10-22T00:06:37.633Z,-0.57
2022-10-22T00:07:38.483Z,-0.57
2022-10-22T00:08:38.683Z,-0.5
2022-10-22T00:09:38.681Z,-0.52
2022-10-22T00:10:39.204Z,-0.53
2022-10-22T00:11:39.621Z,-0.54
2022-10-22T00:12:39.736Z,-0.53
2022-10-22T00:13:40.398Z,-0.57
2022-10-22T00:14:41.383Z,-0.6
2022-10-22T00:15:40.674Z,-0.62
2022-10-22T00:16:41.087Z,-0.59
2022-10-22T00:17:41.770Z,-0.54
2022-10-22T00:18:42.021Z,-0.53
2022-10-22T00:19:41.917Z,-0.51
2022-10-22T00:20:42.538Z,-0.42
2022-10-22T00:21:42.834Z,-0.38
2022-10-22T00:22:43.151Z,-0.39
2022-10-22T00:23:44.006Z,-0.43
2022-10-22T00:24:43.896Z,-0.46
2022-10-22T00:25:43.976Z,-0.43
2022-10-22T00:26:44.327Z,-0.39
2022-10-22T00:27:44.743Z,-0.37
2022-10-22T00:28:45.065Z,-0.3
2022-10-22T00:29:45.476Z,-0.35
2022-10-22T00:30:46.194Z,-0.44
2022-10-22T00:31:46.318Z,-0.49
2022-10-22T00:32:46.294Z,-0.47
2022-10-22T00:33:47.865Z,-0.46
2022-10-22T00:34:47.247Z,-0.49
2022-10-22T00:35:47.564Z,-0.42
2022-10-22T00:36:49.316Z,-0.38
2022-10-22T00:37:48.186Z,-0.36
2022-10-22T00:38:48.405Z,-0.31
2022-10-22T00:39:48.824Z,-0.3
2022-10-22T00:40:49.377Z,-0.36
2022-10-22T00:41:51.086Z,-0.39
2022-10-22T00:42:49.856Z,-0.32
2022-10-22T00:45:56.534Z,-0.23
2022-10-22T00:46:57.056Z,-0.18
2022-10-22T00:49:04.194Z,-0.13
2022-10-22T00:51:06.611Z,-0.15
2022-10-22T00:52:04.150Z,-0.15
2022-10-22T00:53:08.766Z,-0.06
2022-10-22T00:54:08.652Z,-0.05
2022-10-22T00:55:07.454Z,-0.06
2022-10-22T00:56:07.965Z,-0.07
2022-10-22T00:57:07.365Z,-0.08
2022-10-22T00:58:07.674Z,-0.08
2022-10-22T01:00:09.733Z,0
2022-10-22T01:01:14.012Z,-0.01
2022-10-22T01:02:11.484Z,-0.02
2022-10-22T01:03:11.907Z,-0.01
2022-10-22T01:04:12.323Z,0.02
2022-10-22T01:05:12.528Z,0.02
2022-10-22T01:06:21.032Z,0
2022-10-22T01:07:20.403Z,0
2022-10-22T01:30:26.003Z,0.25
2022-10-22T01:31:27.966Z,0.28
2022-10-22T01:32:26.844Z,0.29
2022-10-22T01:33:26.714Z,0.3
2022-10-22T01:34:27.265Z,0.27
2022-10-22T01:37:33.324Z,0.35
2022-10-22T01:38:31.689Z,0.33
2022-10-22T01:39:33.743Z,0.31
2022-10-22T01:40:33.756Z,0.34
2022-10-22T01:41:32.126Z,0.38
2022-10-22T01:42:31.914Z,0.44
2022-10-22T01:43:32.436Z,0.45
2022-10-22T01:46:35.737Z,0.48
2022-10-22T02:00:15.265Z,0.33
2022-10-22T02:03:26.936Z,0.39
2022-10-22T02:04:32.583Z,0.4
2022-10-22T02:06:31.973Z,0.43
2022-10-22T02:07:36.085Z,0.39
2022-10-22T02:08:36.478Z,0.39
2022-10-22T02:09:35.486Z,0.4
2022-10-22T02:10:37.328Z,0.4
2022-10-22T02:11:35.037Z,0.41
2022-10-22T02:12:35.916Z,0.44
2022-10-22T02:13:44.594Z,0.44
2022-10-22T02:14:41.248Z,0.46
2022-10-22T02:15:39.992Z,0.44
2022-10-22T02:16:43.255Z,0.42
2022-10-22T02:17:45.466Z,0.38
2022-10-22T02:18:46.600Z,0.41
2022-10-22T02:20:48.772Z,0.49
2022-10-22T02:21:47.747Z,0.49
2022-10-22T02:22:48.266Z,0.5
2022-10-22T02:23:49.493Z,0.57
2022-10-22T02:24:49.513Z,0.57
2022-10-22T02:25:55.756Z,0.58
2022-10-22T02:32:05.844Z,0.57
2022-10-22T02:36:13.330Z,0.65
2022-10-22T02:37:12.420Z,0.72
2022-10-22T02:38:13.765Z,0.72
2022-10-22T02:39:14.600Z,0.73
2022-10-22T02:40:13.355Z,0.74
2022-10-22T02:41:13.775Z,0.73
2022-10-22T02:42:13.576Z,0.72
2022-10-22T02:43:13.690Z,0.7
2022-10-22T02:44:14.104Z,0.71
2022-10-22T02:45:14.896Z,0.75
2022-10-22T02:46:15.246Z,0.71
2022-10-22T02:47:15.156Z,0.73
2022-10-22T02:48:15.554Z,0.74
2022-10-22T02:49:15.988Z,0.77
2022-10-22T02:50:17.080Z,0.78
2022-10-22T02:51:16.710Z,0.77
2022-10-22T02:52:17.026Z,0.79
2022-10-22T02:53:17.442Z,0.8
2022-10-22T02:54:17.544Z,0.82
2022-10-22T02:55:18.494Z,0.82
2022-10-22T02:56:18.358Z,0.81
2022-10-22T02:57:19.006Z,0.8
2022-10-22T02:58:18.955Z,0.81
2022-10-22T02:59:19.222Z,0.81
2022-10-22T03:00:20.243Z,0.84
2022-10-22T03:01:20.143Z,0.83
2022-10-22T03:02:20.365Z,0.86
2022-10-22T03:03:20.886Z,0.87
2022-10-22T03:04:21.090Z,0.87
2022-10-22T03:05:21.405Z,0.89
2022-10-22T03:06:21.854Z,0.92
2022-10-22T03:07:22.243Z,0.94
2022-10-22T03:08:22.503Z,0.92
2022-10-22T03:09:24.838Z,0.96
2022-10-22T03:10:23.361Z,1
2022-10-22T03:11:23.594Z,1
2022-10-22T03:12:23.916Z,1
2022-10-22T03:13:24.224Z,0.99
2022-10-22T03:14:24.546Z,0.97
2022-10-22T03:15:25.033Z,0.99
2022-10-22T03:16:25.271Z,1.01
2022-10-22T03:17:25.683Z,1.06
2022-10-22T03:18:26.324Z,1.05
2022-10-22T03:19:26.525Z,1.02
2022-10-22T03:20:26.734Z,1.03
2022-10-22T03:22:31.364Z,1.06
2022-10-22T03:23:29.613Z,1.08
2022-10-22T03:25:34.617Z,1.08
2022-10-22T03:26:35.376Z,1.09
2022-10-22T03:27:36.719Z,1.11
2022-10-22T03:28:36.825Z,1.14
2022-10-22T03:29:38.874Z,1.16
2022-10-22T03:30:36.227Z,1.18
2022-10-22T03:31:37.046Z,1.18
2022-10-22T03:32:37.053Z,1.22
2022-10-22T03:33:37.162Z,1.26
2022-10-22T03:34:37.681Z,1.27
2022-10-22T03:36:41.993Z,1.32
2022-10-22T03:37:42.125Z,1.37
2022-10-22T03:38:42.305Z,1.4
2022-10-22T03:39:42.626Z,1.39
2022-10-22T03:40:46.104Z,1.4
2022-10-22T03:41:43.652Z,1.42
2022-10-22T03:42:44.073Z,1.44
2022-10-22T03:43:44.295Z,1.47
2022-10-22T03:44:44.700Z,1.44
2022-10-22T03:45:44.929Z,1.44
2022-10-22T03:46:45.644Z,1.45
2022-10-22T03:47:45.543Z,1.48
2022-10-22T03:48:46.176Z,1.45
2022-10-22T03:49:46.501Z,1.46
2022-10-22T03:50:46.669Z,1.47
2022-10-22T03:51:47.104Z,1.51
2022-10-22T03:52:47.316Z,1.47
2022-10-22T03:53:47.734Z,1.45
2022-10-22T03:54:48.266Z,1.48
2022-10-22T03:55:49.084Z,1.51
2022-10-22T03:56:49.094Z,1.49
2022-10-22T03:57:49.096Z,1.49
2022-10-22T03:58:49.715Z,1.52
2022-10-22T03:59:49.924Z,1.51
2022-10-22T04:00:50.521Z,1.56
2022-10-22T04:01:50.654Z,1.58
2022-10-22T04:02:51.189Z,1.6
2022-10-22T04:03:51.282Z,1.61
2022-10-22T04:04:51.694Z,1.62
2022-10-22T04:05:52.014Z,1.61
2022-10-22T04:06:52.216Z,1.65
2022-10-22T04:07:52.942Z,1.66
2022-10-22T04:08:53.160Z,1.67
2022-10-22T04:09:53.568Z,1.65
2022-10-22T04:10:54.097Z,1.64
2022-10-22T04:11:54.313Z,1.68
2022-10-22T04:12:55.145Z,1.66
2022-10-22T04:13:54.824Z,1.67
2022-10-22T04:14:55.353Z,1.66
2022-10-22T04:15:55.765Z,1.65
2022-10-22T04:16:56.078Z,1.65
2022-10-22T04:17:56.497Z,1.66
2022-10-22T04:18:57.465Z,1.68
2022-10-22T04:19:57.429Z,1.69
2022-10-22T04:20:57.338Z,1.71
2022-10-22T04:22:00.824Z,1.72
2022-10-22T04:22:58.177Z,1.74
2022-10-22T04:23:58.519Z,1.75
2022-10-22T04:24:58.890Z,1.77
2022-10-22T04:27:00.955Z,1.82
2022-10-22T04:28:01.576Z,1.84
2022-10-22T04:29:01.994Z,1.83
2022-10-22T04:30:02.942Z,1.82
2022-10-22T04:32:05.393Z,1.85
2022-10-22T04:33:05.096Z,1.84
2022-10-22T04:34:05.704Z,1.85
2022-10-22T04:35:06.634Z,1.85
2022-10-22T04:37:11.358Z,1.85
2022-10-22T04:38:11.995Z,1.85
2022-10-22T04:39:12.096Z,1.83
2022-10-22T04:40:13.245Z,1.85
2022-10-22T04:41:18.053Z,1.89
2022-10-22T04:42:15.805Z,1.94
2022-10-22T04:43:15.917Z,1.96
2022-10-22T04:44:17.675Z,1.97
2022-10-22T04:45:17.039Z,1.99
2022-10-22T04:46:18.598Z,2.01
2022-10-22T04:47:17.464Z,2.01
2022-10-22T04:48:17.685Z,2.02
2022-10-22T04:49:18.114Z,1.99
2022-10-22T04:50:18.523Z,1.99
2022-10-22T04:51:20.884Z,1.99
2022-10-22T04:52:19.239Z,2
2022-10-22T04:53:19.567Z,1.98
2022-10-22T04:54:19.867Z,1.98
2022-10-22T04:55:20.357Z,1.99
2022-10-22T04:56:24.495Z,2.03
2022-10-22T04:57:22.145Z,2.04
2022-10-22T04:58:22.254Z,2.05
2022-10-22T04:59:22.834Z,2.07
2022-10-22T05:00:22.980Z,2.07
2022-10-22T05:01:28.917Z,2.09
2022-10-22T05:02:26.472Z,2.12
2022-10-22T05:03:26.796Z,2.16
2022-10-22T05:04:27.303Z,2.2
2022-10-22T05:05:27.518Z,2.2
2022-10-22T05:06:29.942Z,2.2
2022-10-22T05:07:28.254Z,2.23
2022-10-22T05:08:28.674Z,2.23
2022-10-22T05:09:29.284Z,2.27
2022-10-22T05:10:29.407Z,2.34
2022-10-22T05:11:32.987Z,2.37
2022-10-22T05:12:30.444Z,2.4
2022-10-22T05:13:30.645Z,2.42
2022-10-22T05:14:31.676Z,2.46
2022-10-22T05:15:33.025Z,2.5
2022-10-22T05:16:33.506Z,2.53
2022-10-22T05:17:35.295Z,2.56
2022-10-22T05:18:38.164Z,2.55
2022-10-22T05:19:35.907Z,2.56
2022-10-22T05:20:40.119Z,2.56
2022-10-22T05:21:37.976Z,2.52
2022-10-22T05:22:37.973Z,2.52
2022-10-22T05:23:38.785Z,2.53
2022-10-22T05:24:39.009Z,2.52
2022-10-22T05:25:39.647Z,2.55
2022-10-22T05:26:39.435Z,2.59
2022-10-22T05:27:40.111Z,2.61
2022-10-22T05:28:40.743Z,2.63
2022-10-22T05:29:40.442Z,2.66
2022-10-22T05:30:40.795Z,2.67
2022-10-22T05:31:41.210Z,2.67
2022-10-22T05:32:41.725Z,2.69
2022-10-22T05:33:43.075Z,2.66
2022-10-22T05:34:42.456Z,2.67
2022-10-22T05:35:46.710Z,2.67
2022-10-22T05:36:44.573Z,2.69
2022-10-22T05:37:44.982Z,2.72
2022-10-22T05:38:45.844Z,2.77
2022-10-22T05:39:45.673Z,2.82
2022-10-22T05:40:46.492Z,2.84
2022-10-22T05:41:46.413Z,2.89
2022-10-22T05:42:46.614Z,2.92
2022-10-22T05:43:47.633Z,2.93
2022-10-22T05:44:48.571Z,2.95
2022-10-22T05:45:47.757Z,2.97
2022-10-22T05:46:48.067Z,2.99
2022-10-22T05:47:48.445Z,3.02
2022-10-22T05:48:53.216Z,3.03
2022-10-22T05:49:50.856Z,3.05
2022-10-22T05:50:51.178Z,3.07
2022-10-22T05:51:51.491Z,3.09
2022-10-22T05:52:51.870Z,3.1
2022-10-22T05:54:05.523Z,3.11
2022-10-22T05:54:53.137Z,3.15
2022-10-22T05:55:53.556Z,3.14
2022-10-22T05:56:53.881Z,3.16
2022-10-22T05:57:54.803Z,3.24
2022-10-22T05:58:54.878Z,3.24
2022-10-22T05:59:55.016Z,3.26
2022-10-22T06:00:55.639Z,3.26
2022-10-22T06:01:55.826Z,3.29
2022-10-22T06:02:55.996Z,3.28
2022-10-22T06:04:02.294Z,3.27
2022-10-22T06:04:59.933Z,3.26
2022-10-22T06:06:02.328Z,3.25
2022-10-22T06:07:00.896Z,3.26
2022-10-22T06:08:01.410Z,3.26
2022-10-22T06:09:05.688Z,3.3
2022-10-22T06:10:03.447Z,3.32
2022-10-22T06:11:03.595Z,3.33
2022-10-22T06:12:04.726Z,3.34
2022-10-22T06:13:04.215Z,3.36
2022-10-22T06:14:05.170Z,3.36
2022-10-22T06:15:06.177Z,3.37
2022-10-22T06:16:05.672Z,3.37
2022-10-22T06:17:05.775Z,3.35
2022-10-22T06:18:06.295Z,3.36
2022-10-22T06:19:06.879Z,3.39
2022-10-22T06:20:08.057Z,3.42
2022-10-22T06:21:09.884Z,3.46
2022-10-22T06:22:07.891Z,3.41
2022-10-22T06:23:07.966Z,3.45
2022-10-22T06:24:10.324Z,3.45
2022-10-22T06:25:09.627Z,3.5
2022-10-22T06:26:10.243Z,3.46
2022-10-22T06:27:09.784Z,3.52
2022-10-22T06:28:10.675Z,3.54
2022-10-22T06:29:10.249Z,3.53
2022-10-22T06:30:11.394Z,3.54
2022-10-22T06:31:10.896Z,3.54
2022-10-22T06:32:11.413Z,3.57
2022-10-22T06:33:11.725Z,3.63
2022-10-22T06:34:13.676Z,3.62
2022-10-22T06:35:12.445Z,3.65
2022-10-22T06:36:18.807Z,3.67
2022-10-22T06:37:16.679Z,3.62
2022-10-22T06:38:16.567Z,3.65
2022-10-22T06:39:18.202Z,3.68
2022-10-22T06:40:17.395Z,3.71
2022-10-22T06:41:17.895Z,3.71
2022-10-22T06:42:18.122Z,3.68
2022-10-22T06:43:18.737Z,3.7
2022-10-22T06:44:20.189Z,3.72
2022-10-22T06:45:19.285Z,3.75
2022-10-22T06:46:21.334Z,3.76
2022-10-22T06:47:20.103Z,3.79
2022-10-22T06:48:20.308Z,3.81
2022-10-22T06:49:21.763Z,3.79
2022-10-22T06:50:21.565Z,3.83
2022-10-22T06:51:21.994Z,3.89
2022-10-22T06:52:21.770Z,3.93
2022-10-22T06:53:22.189Z,4
2022-10-22T06:54:23.426Z,4.11
2022-10-22T06:55:23.142Z,4.1
2022-10-22T06:56:25.399Z,4.13
2022-10-22T06:57:23.754Z,4.21
2022-10-22T06:58:24.374Z,4.24
2022-10-22T06:59:24.682Z,4.23
2022-10-22T07:00:25.098Z,4.27
2022-10-22T07:01:28.890Z,4.28
2022-10-22T07:02:26.555Z,4.26
2022-10-22T07:03:26.872Z,4.25
2022-10-22T07:04:27.388Z,4.33
2022-10-22T07:05:27.652Z,4.33
2022-10-22T07:06:29.862Z,4.38
2022-10-22T07:07:28.631Z,4.39
2022-10-22T07:08:28.959Z,4.43
2022-10-22T07:09:29.678Z,4.45
2022-10-22T07:10:30.658Z,4.51
2022-10-22T07:11:37.049Z,4.45
2022-10-22T07:12:34.709Z,4.45
2022-10-22T07:13:35.220Z,4.45
2022-10-22T07:14:35.429Z,4.45
2022-10-22T07:15:35.650Z,4.45
2022-10-22T07:16:36.074Z,4.44
2022-10-22T07:17:36.589Z,4.45
2022-10-22T07:18:38.443Z,4.53
2022-10-22T07:19:37.314Z,4.55
2022-10-22T07:20:37.523Z,4.58
2022-10-22T07:21:38.144Z,4.56
2022-10-22T07:22:38.725Z,4.55
2022-10-22T07:23:39.284Z,4.56
2022-10-22T07:24:39.183Z,4.67
2022-10-22T07:25:39.616Z,4.79
2022-10-22T07:26:39.711Z,4.85
2022-10-22T07:27:40.598Z,4.79
2022-10-22T07:28:40.676Z,4.81
2022-10-22T07:29:40.966Z,4.74
2022-10-22T07:30:41.480Z,4.78
2022-10-22T07:31:42.426Z,4.83
2022-10-22T07:32:42.208Z,4.88
2022-10-22T07:33:42.622Z,4.94
2022-10-22T07:34:43.889Z,4.91
2022-10-22T07:35:43.862Z,4.91
2022-10-22T07:36:43.778Z,4.91
2022-10-22T07:37:44.190Z,4.94
2022-10-22T07:38:46.039Z,4.99
2022-10-22T07:39:44.811Z,5.02
2022-10-22T07:40:45.134Z,5.08
2022-10-22T07:41:45.545Z,5.19
2022-10-22T07:42:45.865Z,5.21
2022-10-22T07:43:46.285Z,5.22
2022-10-22T07:44:46.904Z,5.22
2022-10-22T07:45:47.294Z,5.23
2022-10-22T07:46:49.003Z,5.23
2022-10-22T07:47:48.964Z,5.27
2022-10-22T07:48:48.352Z,5.34
2022-10-22T07:49:48.574Z,5.39
2022-10-22T07:50:52.474Z,5.35
2022-10-22T07:51:50.224Z,5.37
2022-10-22T07:52:51.008Z,5.42
2022-10-22T07:53:50.764Z,5.42
2022-10-22T07:54:51.057Z,5.42
2022-10-22T07:55:52.291Z,5.41
2022-10-22T07:56:51.963Z,5.44
2022-10-22T07:57:52.358Z,5.48
2022-10-22T07:58:52.845Z,5.52
2022-10-22T07:59:53.033Z,5.54
2022-10-22T08:00:56.633Z,5.54
2022-10-22T08:01:54.386Z,5.6
2022-10-22T08:02:54.497Z,5.68
2022-10-22T08:03:55.115Z,5.68
2022-10-22T08:04:55.389Z,5.66
2022-10-22T08:05:56.045Z,5.69
2022-10-22T08:06:56.255Z,5.71
2022-10-22T08:07:56.688Z,5.76
2022-10-22T08:08:56.924Z,5.79
2022-10-22T08:09:57.200Z,5.84
2022-10-22T08:11:00.185Z,5.87
2022-10-22T08:11:58.343Z,5.91
2022-10-22T08:12:58.864Z,5.92
2022-10-22T08:13:58.974Z,5.99
2022-10-22T08:14:59.274Z,5.97
2022-10-22T08:16:01.137Z,5.94
2022-10-22T08:17:00.122Z,5.99
2022-10-22T08:18:00.323Z,6
2022-10-22T08:19:00.846Z,5.99
2022-10-22T08:20:01.274Z,6
2022-10-22T08:21:01.476Z,6.03
2022-10-22T08:22:02.605Z,6.09
2022-10-22T08:23:02.427Z,6.14
2022-10-22T08:24:02.910Z,6.14
2022-10-22T08:25:03.348Z,6.18
2022-10-22T08:26:03.857Z,6.21
2022-10-22T08:27:04.086Z,6.28
2022-10-22T08:28:05.004Z,6.36
2022-10-22T08:29:04.793Z,6.35
2022-10-22T08:30:06.653Z,6.31
2022-10-22T08:31:07.431Z,6.35
2022-10-22T08:32:06.143Z,6.31
2022-10-22T08:33:06.364Z,6.33
2022-10-22T08:34:06.682Z,6.32
2022-10-22T08:35:07.349Z,6.35
2022-10-22T08:36:08.334Z,6.37
2022-10-22T08:37:07.924Z,6.33
2022-10-22T08:38:08.345Z,6.39
2022-10-22T08:39:08.650Z,6.51
2022-10-22T08:40:19.745Z,6.54
2022-10-22T08:41:16.054Z,6.55
2022-10-22T08:51:37.828Z,6.72
2022-10-22T08:52:41.117Z,6.73
2022-10-22T08:55:45.719Z,6.67
2022-10-22T08:56:48.085Z,6.73
2022-10-22T09:00:05.624Z,6.9
2022-10-22T09:02:04.911Z,6.87
2022-10-22T09:07:11.872Z,6.73
2022-10-22T09:08:13.858Z,6.72
2022-10-22T09:09:16.784Z,6.79
2022-10-22T09:10:14.599Z,6.84
2022-10-22T09:12:20.283Z,6.89
2022-10-22T09:13:22.047Z,6.9
2022-10-22T09:14:22.909Z,6.94
2022-10-22T09:15:20.866Z,6.97
2022-10-22T09:24:51.654Z,7.02
2022-10-22T09:25:50.832Z,7.05
2022-10-22T09:26:49.624Z,7.12
2022-10-22T09:27:51.165Z,7.25
2022-10-22T09:28:51.778Z,7.32
2022-10-22T09:29:50.766Z,7.36
2022-10-22T09:30:51.755Z,7.3
2022-10-22T09:31:51.597Z,7.29
2022-10-22T09:33:54.675Z,7.13
2022-10-22T09:34:58.785Z,7.17
2022-10-22T09:35:58.786Z,7.14
2022-10-22T09:38:07.196Z,7.3
2022-10-22T09:38:59.831Z,7.32
2022-10-22T09:40:05.880Z,7.28
2022-10-22T09:41:03.390Z,7.25
2022-10-22T09:42:04.566Z,7.22
2022-10-22T09:43:04.064Z,7.27
2022-10-22T09:44:07.444Z,7.3
2022-10-22T09:45:05.732Z,7.31
2022-10-22T09:46:08.286Z,7.33
2022-10-22T09:52:28.693Z,7.5
2022-10-22T09:53:30.975Z,7.55
2022-10-22T09:55:30.051Z,7.55
2022-10-22T09:57:34.264Z,7.53
2022-10-22T09:59:41.844Z,7.61
2022-10-22T10:00:41.234Z,7.43
2022-10-22T10:01:40.115Z,7.39
2022-10-22T10:02:41.556Z,7.42
2022-10-22T10:03:40.743Z,7.41
2022-10-22T10:04:46.597Z,7.47
2022-10-22T10:05:48.441Z,7.49
2022-10-22T10:06:46.086Z,7.46
2022-10-22T10:07:46.708Z,7.5
2022-10-22T10:08:48.186Z,7.58
2022-10-22T10:09:48.261Z,7.67
2022-10-22T10:10:55.437Z,7.63
2022-10-22T10:30:38.375Z,7.92
2022-10-22T10:51:37.985Z,8.1
2022-10-22T11:01:09.387Z,8.31
2022-10-22T11:12:36.794Z,8.28
2022-10-22T11:15:40.604Z,8.22
2022-10-22T11:17:46.356Z,8.31
2022-10-22T11:29:19.184Z,8.49
2022-10-22T11:30:22.783Z,8.48
2022-10-22T11:31:18.355Z,8.44
2022-10-22T11:32:21.053Z,8.5
2022-10-22T11:33:26.896Z,8.57
2022-10-22T11:35:34.254Z,8.63
2022-10-22T11:36:28.415Z,8.59
2022-10-22T11:37:32.159Z,8.4
2022-10-22T11:38:32.791Z,8.45
2022-10-22T11:39:40.874Z,8.42
2022-10-22T11:41:37.292Z,8.41
2022-10-22T11:42:40.270Z,8.46
2022-10-22T11:48:06.730Z,8.26
2022-10-22T11:56:26.006Z,8.4
2022-10-22T12:04:43.255Z,8.48
2022-10-22T12:05:42.880Z,8.43
2022-10-22T12:07:55.396Z,8.43
2022-10-22T12:09:01.995Z,8.51
2022-10-22T12:11:53.334Z,8.51
2022-10-22T12:13:01.454Z,8.54
2022-10-22T12:14:02.999Z,8.59
2022-10-22T12:14:58.716Z,8.57
2022-10-22T12:15:59.854Z,8.57
2022-10-22T12:18:05.181Z,8.62
2022-10-22T12:23:13.985Z,8.5
2022-10-22T12:24:15.424Z,8.51
2022-10-22T12:28:24.095Z,8.5
2022-10-22T12:29:24.478Z,8.44
2022-10-22T12:30:28.094Z,8.37
2022-10-22T12:31:25.755Z,8.38
2022-10-22T12:33:27.198Z,8.45
2022-10-22T12:34:27.514Z,8.49
2022-10-22T12:35:30.477Z,8.49
2022-10-22T12:36:33.355Z,8.48
2022-10-22T12:37:31.005Z,8.47
2022-10-22T12:38:31.225Z,8.48
2022-10-22T12:39:31.612Z,8.53
2022-10-22T12:40:36.061Z,8.5
2022-10-22T12:41:35.295Z,8.5
2022-10-22T12:42:35.347Z,8.52
2022-10-22T12:43:34.627Z,8.53
2022-10-22T12:44:34.938Z,8.48
2022-10-22T12:45:35.873Z,8.44
2022-10-22T12:46:36.130Z,8.38
2022-10-22T12:47:35.982Z,8.39
2022-10-22T12:48:40.923Z,8.38
2022-10-22T12:49:44.494Z,8.29
2022-10-22T12:50:45.422Z,8.34
2022-10-22T12:51:43.698Z,8.37
2022-10-22T12:52:43.860Z,8.37
2022-10-22T12:53:47.409Z,8.36
2022-10-22T12:54:47.813Z,8.34
2022-10-22T12:55:50.384Z,8.3
2022-10-22T12:56:48.232Z,8.21
2022-10-22T12:57:49.466Z,8.28
2022-10-22T12:58:55.413Z,8.28
2022-10-22T12:59:53.126Z,8.27
2022-10-22T13:00:59.748Z,8.26
2022-10-22T13:01:57.785Z,8.29
2022-10-22T13:03:01.791Z,8.28
2022-10-22T13:08:12.948Z,8.21
2022-10-22T13:09:23.889Z,8.22
2022-10-22T13:11:21.395Z,8.15
2022-10-22T13:12:25.892Z,8.16
2022-10-22T13:14:36.369Z,8.15
2022-10-22T13:15:39.656Z,8.14
2022-10-22T13:16:32.241Z,8.14
2022-10-22T13:17:41.544Z,8.12
2022-10-22T13:18:34.564Z,8.08
2022-10-22T13:20:35.036Z,8.02
2022-10-22T13:21:38.764Z,8.03
2022-10-22T13:23:39.394Z,8
2022-10-22T13:25:41.147Z,7.93
2022-10-22T13:26:41.472Z,7.92
2022-10-22T13:27:46.387Z,7.92
2022-10-22T13:29:46.813Z,7.91
2022-10-22T13:31:53.371Z,7.87
2022-10-22T13:32:54.822Z,7.86
2022-10-22T13:33:56.165Z,7.84
2022-10-22T13:34:54.114Z,7.84
2022-10-22T13:35:56.485Z,7.85
2022-10-22T13:36:54.538Z,7.83
2022-10-22T13:37:55.135Z,7.84
2022-10-22T13:38:55.372Z,7.85
2022-10-22T13:39:55.683Z,7.78
2022-10-22T13:40:57.117Z,7.73
2022-10-22T13:41:56.424Z,7.75
2022-10-22T13:42:57.131Z,7.72
2022-10-22T13:43:57.963Z,7.69
2022-10-22T13:44:57.866Z,7.64
2022-10-22T13:45:59.875Z,7.59
2022-10-22T13:46:58.604Z,7.59
2022-10-22T13:47:59.009Z,7.54
2022-10-22T13:48:59.534Z,7.52
2022-10-22T13:51:04.457Z,7.38
2022-10-22T13:52:05.283Z,7.34
2022-10-22T13:53:03.446Z,7.3
2022-10-22T13:56:16.783Z,7.28
2022-10-22T13:57:10.509Z,7.22
2022-10-22T13:58:20.990Z,7.17
2022-10-22T13:59:15.376Z,7.15
2022-10-22T14:00:18.556Z,7.1
2022-10-22T14:01:25.110Z,7.06
2022-10-22T14:02:18.973Z,7.07
2022-10-22T14:03:20.943Z,7.04
2022-10-22T14:04:18.670Z,7.01
2022-10-22T14:05:19.801Z,6.97
2022-10-22T14:06:20.426Z,6.91
2022-10-22T14:07:19.763Z,6.85
2022-10-22T14:08:22.185Z,6.79
2022-10-22T14:09:21.128Z,6.75
2022-10-22T14:10:24.003Z,6.7
2022-10-22T14:11:21.806Z,6.65
2022-10-22T14:12:21.899Z,6.6
2022-10-22T14:13:22.214Z,6.52
2022-10-22T14:14:22.693Z,6.48
2022-10-22T14:15:25.015Z,6.44
2022-10-22T14:16:26.235Z,6.4
2022-10-22T14:17:23.783Z,6.34
2022-10-22T14:18:26.468Z,6.36
2022-10-22T14:19:24.669Z,6.33
2022-10-22T14:20:29.249Z,6.28
2022-10-22T14:21:36.198Z,6.23
2022-10-22T14:22:29.146Z,6.18
2022-10-22T14:23:31.097Z,6.14
2022-10-22T14:24:29.563Z,6.1
2022-10-22T14:25:29.890Z,6.06
2022-10-22T14:26:31.736Z,6
2022-10-22T14:27:30.816Z,5.95
2022-10-22T14:28:31.588Z,5.91
2022-10-22T14:29:33.353Z,5.86
2022-10-22T14:30:33.898Z,5.79
2022-10-22T14:31:34.277Z,5.73
2022-10-22T14:32:34.631Z,5.69
2022-10-22T14:33:35.042Z,5.62
2022-10-22T14:34:35.558Z,5.56
2022-10-22T14:35:35.879Z,5.54
2022-10-22T14:36:36.219Z,5.47
2022-10-22T14:37:36.574Z,5.41
2022-10-22T14:38:36.929Z,5.36
2022-10-22T14:39:37.444Z,5.31
2022-10-22T14:40:39.502Z,5.27
2022-10-22T14:41:38.576Z,5.3
2022-10-22T14:42:42.151Z,5.23
2022-10-22T14:43:39.873Z,5.21
2022-10-22T14:44:40.799Z,5.15
2022-10-22T14:45:40.756Z,5.13
2022-10-22T14:46:41.283Z,5.13
2022-10-22T14:47:41.484Z,5.1
2022-10-22T14:48:42.003Z,5.08
2022-10-22T14:49:42.323Z,5.08
2022-10-22T14:50:44.370Z,5.05
2022-10-22T14:51:43.253Z,5.02
2022-10-22T14:52:44.108Z,5
2022-10-22T14:53:44.492Z,5.01
2022-10-22T14:54:44.402Z,5.02
2022-10-22T14:55:47.254Z,4.98
2022-10-22T14:56:45.136Z,4.94
2022-10-22T14:57:45.850Z,4.93
2022-10-22T14:58:45.788Z,4.88
2022-10-22T14:59:46.272Z,4.86
2022-10-22T15:00:46.482Z,4.82
2022-10-22T15:01:46.899Z,4.78
2022-10-22T15:02:48.142Z,4.74
2022-10-22T15:03:47.651Z,4.71
2022-10-22T15:04:49.030Z,4.66
2022-10-22T15:05:52.363Z,4.62
2022-10-22T15:06:50.008Z,4.58
2022-10-22T15:07:50.221Z,4.54
2022-10-22T15:08:50.763Z,4.53
2022-10-22T15:09:51.365Z,4.49
2022-10-22T15:11:52.811Z,4.4
2022-10-22T15:12:53.013Z,4.38
2022-10-22T15:13:53.431Z,4.33
2022-10-22T15:14:54.158Z,4.31
2022-10-22T15:15:54.167Z,4.27
2022-10-22T15:16:54.683Z,4.23
2022-10-22T15:17:54.954Z,4.22
2022-10-22T15:18:55.414Z,4.22
2022-10-22T15:19:55.944Z,4.18
2022-10-22T15:21:59.021Z,4.13
2022-10-22T15:22:59.554Z,4.11
2022-10-22T15:24:01.182Z,4.06
2022-10-22T15:25:00.464Z,4.04
2022-10-22T15:26:00.644Z,4.02
2022-10-22T15:27:01.104Z,3.97
2022-10-22T15:28:09.087Z,3.94
2022-10-22T15:29:04.183Z,3.92
2022-10-22T15:31:03.881Z,3.85
2022-10-22T15:32:04.113Z,3.78
2022-10-22T15:33:04.129Z,3.74
2022-10-22T15:34:04.312Z,3.73
2022-10-22T15:35:05.533Z,3.68
2022-10-22T15:36:13.442Z,3.59
2022-10-22T15:37:09.463Z,3.53
2022-10-22T15:38:06.806Z,3.47
2022-10-22T15:39:08.967Z,3.43
2022-10-22T15:40:08.574Z,3.41
2022-10-22T15:41:11.024Z,3.38
2022-10-22T15:42:09.568Z,3.34
2022-10-22T15:43:08.938Z,3.34
2022-10-22T15:44:16.161Z,3.33
2022-10-22T15:45:13.907Z,3.32
2022-10-22T15:46:18.938Z,3.29
2022-10-22T15:47:16.285Z,3.26
2022-10-22T15:48:16.904Z,3.26
2022-10-22T15:49:17.932Z,3.24
2022-10-22T15:50:17.846Z,3.23
2022-10-22T15:51:19.555Z,3.21
2022-10-22T15:52:18.158Z,3.19
2022-10-22T15:53:18.782Z,3.18
2022-10-22T15:54:24.517Z,3.14
2022-10-22T15:55:21.964Z,3.12
2022-10-22T15:56:23.412Z,3.09
2022-10-22T15:57:22.591Z,3.04
2022-10-22T15:58:23.272Z,3.05
2022-10-22T15:59:23.320Z,3.03
2022-10-22T16:00:23.844Z,2.98
2022-10-22T16:01:25.154Z,2.95
2022-10-22T16:02:24.476Z,2.92
2022-10-22T16:03:24.914Z,2.91
2022-10-22T16:04:25.205Z,2.92
2022-10-22T16:05:27.658Z,2.91
2022-10-22T16:06:34.947Z,2.84
2022-10-22T16:07:27.323Z,2.78
2022-10-22T16:08:28.198Z,2.75
2022-10-22T16:09:28.482Z,2.73
2022-10-22T16:10:28.517Z,2.65
2022-10-22T16:11:29.767Z,2.61
2022-10-22T16:12:29.459Z,2.57
2022-10-22T16:13:29.763Z,2.57
2022-10-22T16:14:30.283Z,2.53
2022-10-22T16:15:30.468Z,2.48
2022-10-22T16:16:33.566Z,2.45
2022-10-22T16:17:31.132Z,2.41
2022-10-22T16:18:31.546Z,2.38
2022-10-22T16:19:31.953Z,2.37
2022-10-22T16:20:32.263Z,2.35
2022-10-22T16:21:32.555Z,2.33
2022-10-22T16:22:32.996Z,2.32
2022-10-22T16:23:34.332Z,2.31
2022-10-22T16:24:33.847Z,2.28
2022-10-22T16:26:36.065Z,2.26
2022-10-22T16:27:36.105Z,2.23
2022-10-22T16:28:36.635Z,2.18
2022-10-22T16:29:40.205Z,2.14
2022-10-22T16:30:38.713Z,2.15
2022-10-22T16:31:38.449Z,2.11
2022-10-22T16:32:38.442Z,2.07
2022-10-22T16:33:44.434Z,2.06
2022-10-22T16:34:44.028Z,2.04
2022-10-22T16:35:44.142Z,2.05
2022-10-22T16:36:44.536Z,2.08
2022-10-22T16:37:44.985Z,2.09
2022-10-22T16:38:46.106Z,2.07
2022-10-22T16:39:46.428Z,2.03
2022-10-22T16:40:46.024Z,1.98
2022-10-22T16:41:46.420Z,1.95
2022-10-22T16:42:46.763Z,1.93
2022-10-22T16:43:49.523Z,1.9
2022-10-22T16:44:47.474Z,1.85
2022-10-22T16:45:51.475Z,1.79
2022-10-22T16:46:48.719Z,1.74
2022-10-22T16:47:49.143Z,1.71
2022-10-22T16:48:51.083Z,1.66
2022-10-22T16:49:50.067Z,1.6
2022-10-22T16:50:50.183Z,1.57
2022-10-22T16:51:50.573Z,1.53
2022-10-22T16:52:51.014Z,1.44
2022-10-22T16:53:52.768Z,1.44
2022-10-22T16:54:51.853Z,1.45
2022-10-22T16:55:52.053Z,1.42
2022-10-22T16:56:52.676Z,1.44
2022-10-22T16:57:53.200Z,1.47
2022-10-22T16:58:55.353Z,1.48
2022-10-22T16:59:53.659Z,1.51
2022-10-22T17:00:54.008Z,1.53
2022-10-22T17:01:54.123Z,1.5
2022-10-22T17:02:54.453Z,1.46
2022-10-22T17:03:54.969Z,1.45
2022-10-22T17:04:55.271Z,1.46
2022-10-22T17:05:58.669Z,1.46
2022-10-22T17:06:56.526Z,1.46
2022-10-22T17:07:56.965Z,1.45
2022-10-22T17:08:57.218Z,1.44
2022-10-22T17:09:57.685Z,1.43
2022-10-22T17:10:57.862Z,1.41
2022-10-22T17:11:58.391Z,1.38
2022-10-22T17:12:59.440Z,1.35